createdAt,value
2023-02-06T00:00:54.719Z,2.33
2023-02-06T00:03:21.328Z,2.21
2023-02-06T00:05:58.907Z,2.23
2023-02-06T00:08:26.852Z,2.27
2023-02-06T00:10:54.381Z,2.28
2023-02-06T00:13:21.014Z,2.29
2023-02-06T00:15:47.859Z,2.27
2023-02-06T00:18:14.571Z,2.28
2023-02-06T00:20:41.205Z,2.28
2023-02-06T00:23:07.873Z,2.28
2023-02-06T00:25:34.901Z,2.24
2023-02-06T00:28:05.107Z,2.25
2023-02-06T00:30:31.728Z,2.22
2023-02-06T00:32:58.327Z,2.22
2023-02-06T00:35:24.983Z,2.21
2023-02-06T00:37:51.661Z,2.21
2023-02-06T00:40:18.657Z,2.10
2023-02-06T00:42:45.345Z,2.14
2023-02-06T00:45:12.112Z,2.16
2023-02-06T00:47:38.779Z,2.19
2023-02-06T00:50:05.911Z,2.19
2023-02-06T00:52:32.660Z,2.13
2023-02-06T00:54:59.282Z,2.17
2023-02-06T00:57:25.880Z,2.13
2023-02-06T00:59:54.461Z,2.19
2023-02-06T01:02:21.490Z,2.20
2023-02-06T01:04:48.117Z,2.20
2023-02-06T01:07:14.712Z,2.19
2023-02-06T01:09:41.946Z,2.14
2023-02-06T01:12:08.574Z,2.09
2023-02-06T01:14:35.272Z,2.05
2023-02-06T01:17:01.892Z,2.09
2023-02-06T01:19:28.505Z,2.12
2023-02-06T01:21:55.221Z,2.06
2023-02-06T01:24:21.816Z,2.09
2023-02-06T01:26:48.509Z,2.03
2023-02-06T01:29:15.139Z,2.06
2023-02-06T01:31:41.781Z,2.09
2023-02-06T01:34:10.178Z,2.02
2023-02-06T01:36:36.776Z,2.07
2023-02-06T01:39:04.284Z,2.03
2023-02-06T01:41:30.918Z,2.00
2023-02-06T01:44:13.597Z,2.01
2023-02-06T01:46:41.731Z,2.02
2023-02-06T01:49:30.623Z,2.00
2023-02-06T01:52:07.082Z,1.96
2023-02-06T01:54:34.455Z,2.00
2023-02-06T01:57:06.223Z,1.99
2023-02-06T01:59:34.389Z,2.01
2023-02-06T02:02:01.245Z,1.96
2023-02-06T02:04:31.661Z,1.96
2023-02-06T02:07:08.515Z,1.97
2023-02-06T02:09:35.390Z,1.97
2023-02-06T02:12:02.628Z,1.95
2023-02-06T02:14:29.950Z,1.95
2023-02-06T02:17:15.405Z,1.92
2023-02-06T02:20:16.123Z,1.93
2023-02-06T02:23:06.319Z,1.94
2023-02-06T02:25:57.543Z,1.92
2023-02-06T02:28:42.490Z,1.93
2023-02-06T02:31:43.128Z,1.88
2023-02-06T02:34:31.213Z,1.88
2023-02-06T02:37:35.452Z,1.89
2023-02-06T02:40:08.180Z,1.85
2023-02-06T02:42:43.228Z,1.86
2023-02-06T02:45:20.631Z,1.87
2023-02-06T02:47:58.203Z,1.87
2023-02-06T02:50:25.596Z,1.88
2023-02-06T02:52:52.911Z,1.88
2023-02-06T02:55:23.320Z,1.87
2023-02-06T02:57:56.314Z,1.85
2023-02-06T03:00:24.526Z,1.86
2023-02-06T03:02:53.314Z,1.83
2023-02-06T03:05:24.474Z,1.73
2023-02-06T03:08:41.276Z,1.79
2023-02-06T03:11:15.728Z,1.72
2023-02-06T03:13:55.652Z,1.73
2023-02-06T03:16:28.441Z,1.67
2023-02-06T03:19:26.156Z,1.71
2023-02-06T03:21:52.774Z,1.71
2023-02-06T03:24:29.154Z,1.63
2023-02-06T03:27:00.402Z,1.58
2023-02-06T03:29:30.096Z,1.61
2023-02-06T03:32:00.728Z,1.63
2023-02-06T03:34:45.784Z,1.58
2023-02-06T03:37:13.130Z,1.49
2023-02-06T03:39:40.510Z,1.58
2023-02-06T03:42:10.927Z,1.54
2023-02-06T03:44:42.083Z,1.45
2023-02-06T03:47:11.582Z,1.45
2023-02-06T03:49:40.648Z,1.34
2023-02-06T03:52:11.189Z,1.37
2023-02-06T03:54:44.242Z,1.33
2023-02-06T03:57:13.065Z,1.37
2023-02-06T03:59:40.021Z,1.42
2023-02-06T04:02:07.250Z,1.36
2023-02-06T04:04:39.427Z,1.42
2023-02-06T04:07:12.835Z,1.37
2023-02-06T04:09:40.297Z,1.35
2023-02-06T04:12:06.993Z,1.33
2023-02-06T04:14:36.733Z,1.29
2023-02-06T04:17:05.197Z,1.15
2023-02-06T04:19:32.708Z,1.24
2023-02-06T04:21:59.525Z,1.28
2023-02-06T04:24:26.314Z,1.24
2023-02-06T04:26:53.404Z,1.25
2023-02-06T04:29:20.028Z,1.29
2023-02-06T04:31:46.746Z,1.30
2023-02-06T04:34:13.417Z,1.26
2023-02-06T04:36:40.017Z,1.31
2023-02-06T04:39:07.458Z,1.30
2023-02-06T04:41:34.420Z,1.31
2023-02-06T04:44:01.312Z,1.33
2023-02-06T04:46:28.020Z,1.34
2023-02-06T04:48:54.606Z,1.34
2023-02-06T04:51:21.262Z,1.34
2023-02-06T04:53:47.859Z,1.35
2023-02-06T04:56:14.509Z,1.33
2023-02-06T04:58:41.114Z,1.30
2023-02-06T05:01:07.830Z,1.27
2023-02-06T05:03:34.666Z,1.29
2023-02-06T05:06:02.811Z,1.29
2023-02-06T05:08:30.012Z,1.29
2023-02-06T05:10:57.020Z,1.28
2023-02-06T05:13:24.061Z,1.27
2023-02-06T05:15:50.800Z,1.22
2023-02-06T05:18:18.128Z,1.16
2023-02-06T05:20:44.836Z,1.19
2023-02-06T05:23:11.582Z,1.22
2023-02-06T05:25:38.315Z,1.21
2023-02-06T05:28:06.824Z,1.19
2023-02-06T05:30:34.719Z,1.14
2023-02-06T05:33:01.405Z,1.16
2023-02-06T05:35:28.214Z,1.14
2023-02-06T05:37:55.026Z,1.12
2023-02-06T05:40:21.713Z,1.07
2023-02-06T05:42:48.341Z,1.09
2023-02-06T05:45:15.063Z,1.04
2023-02-06T05:47:41.653Z,1.03
2023-02-06T05:50:08.584Z,1.03
2023-02-06T05:52:35.248Z,0.99
2023-02-06T05:55:01.906Z,0.99
2023-02-06T05:57:28.550Z,0.98
2023-02-06T05:59:55.203Z,0.93
2023-02-06T06:02:21.818Z,0.89
2023-02-06T06:04:48.531Z,0.86
2023-02-06T06:07:15.688Z,0.86
2023-02-06T06:09:42.461Z,0.85
2023-02-06T06:12:09.564Z,0.84
2023-02-06T06:14:36.185Z,0.82
2023-02-06T06:17:02.809Z,0.79
2023-02-06T06:19:29.386Z,0.75
2023-02-06T06:21:58.190Z,0.72
2023-02-06T06:24:25.876Z,0.70
2023-02-06T06:26:52.669Z,0.66
2023-02-06T06:29:19.345Z,0.63
2023-02-06T06:31:46.174Z,0.61
2023-02-06T06:34:12.930Z,0.58
2023-02-06T06:36:39.592Z,0.56
2023-02-06T06:39:06.394Z,0.52
2023-02-06T06:41:33.057Z,0.53
2023-02-06T06:43:59.849Z,0.49
2023-02-06T06:46:26.729Z,0.43
2023-02-06T06:48:53.454Z,0.40
2023-02-06T06:51:20.694Z,0.35
2023-02-06T06:53:47.391Z,0.34
2023-02-06T06:56:15.168Z,0.33
2023-02-06T06:58:42.177Z,0.31
2023-02-06T07:01:09.224Z,0.29
2023-02-06T07:03:36.730Z,0.28
2023-02-06T07:06:03.890Z,0.25
2023-02-06T07:08:31.746Z,0.23
2023-02-06T07:10:58.695Z,0.23
2023-02-06T07:13:25.324Z,0.21
2023-02-06T07:15:52.222Z,0.21
2023-02-06T07:18:18.854Z,0.18
2023-02-06T07:20:45.541Z,0.16
2023-02-06T07:23:12.182Z,0.16
2023-02-06T07:25:38.777Z,0.13
2023-02-06T07:28:05.734Z,0.12
2023-02-06T07:30:32.438Z,0.08
2023-02-06T07:32:59.054Z,0.09
2023-02-06T07:35:26.012Z,0.07
2023-02-06T07:37:55.915Z,0.05
2023-02-06T07:40:23.309Z,0.06
2023-02-06T07:42:49.985Z,0.04
2023-02-06T07:45:16.978Z,-0.00
2023-02-06T07:47:45.443Z,0.03
2023-02-06T07:50:12.087Z,0.03
2023-02-06T07:52:38.802Z,0.03
2023-02-06T07:55:05.795Z,-0.17
2023-02-06T07:57:32.526Z,-0.07
2023-02-06T07:59:59.133Z,-0.12
2023-02-06T08:02:25.733Z,-0.17
2023-02-06T08:04:52.448Z,-0.48
2023-02-06T08:07:19.192Z,-0.30
2023-02-06T08:09:45.913Z,-0.33
2023-02-06T08:12:12.574Z,-0.23
2023-02-06T08:14:39.186Z,-0.34
2023-02-06T08:17:06.132Z,-0.24
2023-02-06T08:19:32.747Z,-0.30
2023-02-06T08:21:59.359Z,-0.17
2023-02-06T08:24:26.017Z,-0.14
2023-02-06T08:26:52.622Z,-0.16
2023-02-06T08:29:19.494Z,-0.11
2023-02-06T08:31:46.563Z,-0.06
2023-02-06T08:34:14.758Z,-0.04
2023-02-06T08:36:43.441Z,-0.06
2023-02-06T08:39:13.627Z,-0.06
2023-02-06T08:41:42.612Z,-0.02
2023-02-06T08:44:13.333Z,-0.01
2023-02-06T08:46:40.708Z,-0.02
2023-02-06T08:49:13.262Z,-0.02
2023-02-06T08:51:40.131Z,-0.13
2023-02-06T08:54:10.928Z,-0.06
2023-02-06T08:56:38.162Z,-0.02
2023-02-06T08:59:06.297Z,-0.17
2023-02-06T09:01:35.992Z,-0.01
2023-02-06T09:04:08.313Z,-0.10
2023-02-06T09:06:40.333Z,-0.08
2023-02-06T09:09:08.339Z,-0.06
2023-02-06T09:11:35.553Z,-0.06
2023-02-06T09:14:03.669Z,-0.09
2023-02-06T09:16:33.526Z,-0.07
2023-02-06T09:19:01.585Z,-0.11
2023-02-06T09:21:31.304Z,-0.14
2023-02-06T09:24:00.906Z,-0.06
2023-02-06T09:26:30.157Z,-0.08
2023-02-06T09:28:58.765Z,-0.05
2023-02-06T09:31:26.579Z,0.02
2023-02-06T09:33:54.697Z,0.07
2023-02-06T09:36:22.242Z,0.06
2023-02-06T09:38:51.346Z,0.05
2023-02-06T09:41:26.604Z,0.04
2023-02-06T09:44:16.778Z,0.04
2023-02-06T09:47:01.362Z,-0.03
2023-02-06T09:49:56.070Z,0.11
2023-02-06T09:52:28.871Z,4.50
2023-02-06T09:55:14.088Z,2.85
2023-02-06T09:57:59.006Z,1.55
2023-02-06T10:00:55.244Z,1.08
2023-02-06T10:03:47.431Z,0.74
2023-02-06T10:06:20.576Z,0.65
2023-02-06T10:08:55.080Z,0.71
2023-02-06T10:11:41.312Z,0.71
2023-02-06T10:14:22.507Z,0.70
2023-02-06T10:16:51.932Z,0.67
2023-02-06T10:19:44.133Z,0.63
2023-02-06T10:22:31.164Z,0.66
2023-02-06T10:25:21.147Z,0.62
2023-02-06T10:27:53.406Z,0.63
2023-02-06T10:30:30.251Z,0.70
2023-02-06T10:33:11.792Z,0.74
2023-02-06T10:36:31.289Z,0.81
2023-02-06T10:39:12.949Z,0.68
2023-02-06T10:42:22.762Z,0.52
2023-02-06T10:45:17.053Z,0.71
2023-02-06T10:47:55.194Z,0.79
2023-02-06T10:50:32.861Z,0.83
2023-02-06T10:53:15.870Z,0.86
2023-02-06T10:55:59.901Z,0.90
2023-02-06T10:58:45.814Z,0.91
2023-02-06T11:01:25.578Z,0.96
2023-02-06T11:04:05.555Z,0.82
2023-02-06T11:06:32.421Z,0.80
2023-02-06T11:08:59.243Z,0.69
2023-02-06T11:11:31.552Z,0.72
2023-02-06T11:14:17.316Z,0.64
2023-02-06T11:16:44.568Z,0.68
2023-02-06T11:19:25.820Z,0.78
2023-02-06T11:21:56.622Z,0.81
2023-02-06T11:24:25.317Z,0.84
2023-02-06T11:26:59.177Z,0.84
2023-02-06T11:29:28.223Z,0.84
2023-02-06T11:31:58.714Z,0.93
2023-02-06T11:34:31.265Z,0.85
2023-02-06T11:37:03.490Z,0.90
2023-02-06T11:39:31.865Z,0.97
2023-02-06T11:42:05.892Z,1.02
2023-02-06T11:44:38.723Z,1.07
2023-02-06T11:47:38.138Z,1.08
2023-02-06T11:50:14.086Z,1.09
2023-02-06T11:52:46.987Z,1.09
2023-02-06T11:55:25.785Z,1.12
2023-02-06T11:58:07.904Z,1.05
2023-02-06T12:00:36.811Z,1.12
2023-02-06T12:03:04.340Z,1.11
2023-02-06T12:05:35.694Z,1.11
2023-02-06T12:08:14.162Z,1.05
2023-02-06T12:10:52.474Z,1.06
2023-02-06T12:13:29.199Z,1.12
2023-02-06T12:15:58.691Z,1.87
2023-02-06T12:18:35.104Z,1.52
2023-02-06T12:21:16.465Z,1.43
2023-02-06T12:23:47.554Z,1.38
2023-02-06T12:26:21.892Z,1.33
2023-02-06T12:29:02.334Z,1.25
2023-02-06T12:31:37.355Z,1.21
2023-02-06T12:34:24.875Z,1.11
2023-02-06T12:37:11.105Z,1.26
2023-02-06T12:39:37.847Z,1.26
2023-02-06T12:42:09.789Z,1.20
2023-02-06T12:45:05.073Z,1.09
2023-02-06T12:47:40.397Z,1.14
2023-02-06T12:50:22.584Z,1.10
2023-02-06T12:52:56.652Z,1.01
2023-02-06T12:55:44.468Z,0.94
2023-02-06T12:58:29.546Z,1.02
2023-02-06T13:01:34.356Z,1.12
2023-02-06T13:04:05.144Z,1.08
2023-02-06T13:06:46.436Z,0.91
2023-02-06T13:09:21.520Z,0.82
2023-02-06T13:11:48.458Z,0.80
2023-02-06T13:14:22.950Z,0.91
2023-02-06T13:17:18.748Z,1.05
2023-02-06T13:19:45.353Z,1.06
2023-02-06T13:22:16.829Z,0.97
2023-02-06T13:24:46.598Z,1.00
2023-02-06T13:27:14.643Z,1.01
2023-02-06T13:29:49.125Z,0.98
2023-02-06T13:32:15.815Z,0.93
2023-02-06T13:34:47.027Z,0.90
2023-02-06T13:37:31.716Z,1.04
2023-02-06T13:40:25.638Z,0.99
2023-02-06T13:43:10.624Z,0.98
2023-02-06T13:45:57.273Z,1.02
2023-02-06T13:48:58.230Z,1.01
2023-02-06T13:51:43.069Z,1.09
2023-02-06T13:54:18.544Z,0.72
2023-02-06T13:57:14.890Z,0.83
2023-02-06T13:59:48.731Z,0.70
2023-02-06T14:02:34.184Z,0.83
2023-02-06T14:05:02.910Z,0.55
2023-02-06T14:08:05.808Z,0.78
2023-02-06T14:10:35.266Z,0.87
2023-02-06T14:13:28.621Z,0.77
2023-02-06T14:16:33.021Z,0.84
2023-02-06T14:19:05.056Z,0.78
2023-02-06T14:21:37.520Z,0.67
2023-02-06T14:24:42.573Z,0.75
2023-02-06T14:27:30.801Z,0.82
2023-02-06T14:30:12.500Z,0.70
2023-02-06T14:32:50.115Z,0.55
2023-02-06T14:35:52.174Z,0.72
2023-02-06T14:38:25.797Z,0.74
2023-02-06T14:40:55.050Z,0.76
2023-02-06T14:43:30.158Z,0.82
2023-02-06T14:46:07.547Z,0.79
2023-02-06T14:48:50.117Z,0.83
2023-02-06T14:51:38.497Z,0.73
2023-02-06T14:54:34.384Z,0.61
2023-02-06T14:57:20.546Z,0.68
2023-02-06T14:59:58.091Z,0.74
2023-02-06T15:02:29.653Z,0.71
2023-02-06T15:04:57.391Z,0.73
2023-02-06T15:07:27.449Z,0.74
2023-02-06T15:10:06.299Z,0.82
2023-02-06T15:12:34.263Z,0.86
2023-02-06T15:15:16.288Z,0.82
2023-02-06T15:17:43.901Z,0.82
2023-02-06T15:20:33.124Z,0.83
2023-02-06T15:23:16.485Z,0.85
2023-02-06T15:25:44.527Z,0.75
2023-02-06T15:28:19.021Z,0.59
2023-02-06T15:30:46.510Z,0.63
2023-02-06T15:33:21.467Z,0.72
2023-02-06T15:35:53.089Z,0.41
2023-02-06T15:38:22.258Z,0.58
2023-02-06T15:40:58.967Z,0.66
2023-02-06T15:43:27.276Z,0.65
2023-02-06T15:45:59.941Z,0.66
2023-02-06T15:48:35.905Z,0.53
2023-02-06T15:51:02.557Z,0.49
2023-02-06T15:53:37.427Z,0.49
2023-02-06T15:56:07.587Z,0.51
2023-02-06T15:58:35.187Z,0.60
2023-02-06T16:01:03.230Z,0.62
2023-02-06T16:03:30.862Z,0.61
2023-02-06T16:05:57.868Z,0.63
2023-02-06T16:08:30.501Z,0.66
2023-02-06T16:11:27.772Z,0.62
2023-02-06T16:13:56.998Z,0.59
2023-02-06T16:16:25.583Z,0.49
2023-02-06T16:18:53.959Z,0.43
2023-02-06T16:21:23.287Z,0.44
2023-02-06T16:24:22.267Z,0.43
2023-02-06T16:26:52.367Z,0.47
2023-02-06T16:29:31.564Z,0.49
2023-02-06T16:32:21.625Z,0.44
2023-02-06T16:34:48.717Z,0.45
2023-02-06T16:37:21.684Z,0.47
2023-02-06T16:39:48.748Z,0.47
2023-02-06T16:42:22.932Z,0.47
2023-02-06T16:44:53.286Z,0.45
2023-02-06T16:47:21.302Z,0.45
2023-02-06T16:49:48.383Z,0.40
2023-02-06T16:52:23.461Z,0.43
2023-02-06T16:54:50.382Z,0.41
2023-02-06T16:57:39.164Z,0.42
2023-02-06T17:00:09.581Z,0.33
2023-02-06T17:02:36.818Z,0.35
2023-02-06T17:05:03.761Z,0.38
2023-02-06T17:07:31.922Z,0.37
2023-02-06T17:09:59.297Z,0.35
2023-02-06T17:12:25.970Z,0.35
2023-02-06T17:14:52.704Z,0.29
2023-02-06T17:17:21.540Z,0.33
2023-02-06T17:19:49.389Z,0.35
2023-02-06T17:22:16.179Z,0.34
2023-02-06T17:24:42.938Z,0.38
2023-02-06T17:27:15.528Z,1.08
2023-02-06T17:29:42.131Z,0.73
2023-02-06T17:32:09.341Z,0.60
2023-02-06T17:34:36.864Z,0.55
2023-02-06T17:37:04.622Z,0.49
2023-02-06T17:39:31.226Z,0.44
2023-02-06T17:41:57.915Z,1.47
2023-02-06T17:44:24.556Z,0.90
2023-02-06T17:46:51.518Z,0.69
2023-02-06T17:49:18.317Z,0.60
2023-02-06T17:51:45.165Z,0.54
2023-02-06T17:54:12.335Z,0.49
2023-02-06T17:56:39.424Z,0.45
2023-02-06T17:59:06.072Z,0.39
2023-02-06T18:01:33.558Z,0.38
2023-02-06T18:04:01.097Z,0.35
2023-02-06T18:06:32.671Z,0.38
2023-02-06T18:08:59.305Z,0.31
2023-02-06T18:11:25.937Z,0.29
2023-02-06T18:13:52.556Z,0.30
2023-02-06T18:16:22.767Z,0.32
2023-02-06T18:18:49.791Z,0.31
2023-02-06T18:21:19.310Z,0.22
2023-02-06T18:23:46.793Z,0.07
2023-02-06T18:26:14.007Z,0.08
2023-02-06T18:28:40.750Z,0.13
2023-02-06T18:31:20.063Z,0.10
2023-02-06T18:33:46.643Z,0.15
2023-02-06T18:36:13.385Z,0.13
2023-02-06T18:38:40.149Z,0.13
2023-02-06T18:41:06.897Z,0.13
2023-02-06T18:43:33.653Z,0.13
2023-02-06T18:46:07.122Z,0.14
2023-02-06T18:48:33.825Z,0.13
2023-02-06T18:51:00.933Z,0.12
2023-02-06T18:53:27.555Z,0.10
2023-02-06T18:56:01.874Z,0.09
2023-02-06T20:11:23.436Z,-0.50
2023-02-06T20:13:52.265Z,-0.53
2023-02-06T20:16:27.331Z,-0.59
2023-02-06T20:18:55.423Z,-0.58
2023-02-06T20:21:31.384Z,-0.57
2023-02-06T20:24:00.920Z,-0.59
2023-02-06T20:26:31.796Z,-0.61
2023-02-06T20:28:58.896Z,-0.58
2023-02-06T20:31:26.560Z,-0.61
2023-02-06T20:33:54.654Z,-0.58
2023-02-06T20:36:24.701Z,-0.60
2023-02-06T20:38:56.504Z,-0.66
2023-02-06T20:41:31.070Z,-0.64
2023-02-06T20:44:00.202Z,-0.63
2023-02-06T20:46:29.757Z,-0.64
2023-02-06T20:49:00.430Z,-0.62
2023-02-06T20:51:27.334Z,-0.63
2023-02-06T20:53:54.229Z,-0.63
2023-02-06T20:56:22.204Z,-0.64
2023-02-06T20:58:50.316Z,-0.68
2023-02-06T21:01:20.426Z,-0.68
2023-02-06T21:03:47.363Z,-0.69
2023-02-06T21:06:14.905Z,-0.68
2023-02-06T21:08:42.701Z,-0.70
2023-02-06T21:11:13.243Z,-0.68
2023-02-06T21:13:40.931Z,-0.71
2023-02-06T21:16:13.366Z,-0.76
2023-02-06T21:18:42.664Z,-0.73
2023-02-06T21:21:12.931Z,-0.79
2023-02-06T21:23:41.311Z,-0.79
2023-02-06T21:26:09.242Z,-0.79
2023-02-06T21:28:37.265Z,-0.78
2023-02-06T21:31:10.159Z,-0.80
2023-02-06T21:33:37.268Z,-0.83
2023-02-06T21:36:07.010Z,-0.85
2023-02-06T21:38:35.579Z,-0.88
2023-02-06T21:41:19.265Z,-0.93
2023-02-06T21:43:46.532Z,-0.90
2023-02-06T21:46:13.696Z,-0.89
2023-02-06T21:48:41.330Z,-0.90
2023-02-06T21:51:13.944Z,-0.93
2023-02-06T21:53:41.134Z,-0.96
2023-02-06T21:56:16.470Z,-1.09
2023-02-06T21:58:43.343Z,-1.01
2023-02-06T22:01:28.444Z,-1.12
2023-02-06T22:03:56.970Z,-1.07
2023-02-06T22:06:24.471Z,-1.04
2023-02-06T22:08:53.297Z,-1.10
2023-02-06T22:11:23.053Z,-1.11
2023-02-06T22:13:50.985Z,-1.30
2023-02-06T22:16:20.959Z,-1.16
2023-02-06T22:18:48.311Z,-1.13
2023-02-06T22:21:17.691Z,-1.29
2023-02-06T22:23:45.479Z,-1.23
2023-02-06T22:26:14.433Z,-1.19
2023-02-06T22:28:42.125Z,-1.23
2023-02-06T22:31:16.490Z,-1.27
2023-02-06T22:33:43.809Z,-1.30
2023-02-06T22:36:13.027Z,-1.26
2023-02-06T22:38:40.421Z,-1.30
2023-02-06T22:41:08.897Z,-1.31
2023-02-06T22:43:37.654Z,-1.30
2023-02-06T22:46:05.642Z,-1.32
2023-02-06T22:48:32.646Z,-1.35
2023-02-06T22:51:07.137Z,-1.37
2023-02-06T22:53:33.937Z,-1.37
2023-02-06T22:56:24.730Z,-1.37
2023-02-06T22:58:52.627Z,-1.42
2023-02-06T23:01:21.778Z,-1.41
2023-02-06T23:03:52.607Z,-1.44
2023-02-06T23:06:20.299Z,-1.44
2023-02-06T23:08:47.172Z,-1.47
2023-02-06T23:11:15.089Z,-1.50
2023-02-06T23:13:42.145Z,-1.54
2023-02-06T23:16:09.603Z,-1.58
2023-02-06T23:18:36.884Z,-1.60
2023-02-06T23:21:10.849Z,-1.60
2023-02-06T23:23:38.066Z,-1.64
2023-02-06T23:26:08.704Z,-1.66
2023-02-06T23:28:36.661Z,-1.74
2023-02-06T23:31:03.491Z,-1.75
2023-02-06T23:33:30.482Z,-1.76
2023-02-06T23:36:06.096Z,-1.75
2023-02-06T23:38:33.518Z,-1.87
2023-02-06T23:41:08.931Z,-1.83
2023-02-06T23:43:35.948Z,-1.81
2023-02-06T23:46:03.368Z,-1.82
2023-02-06T23:48:30.536Z,-1.83
2023-02-06T23:50:57.229Z,-1.85
2023-02-06T23:53:23.980Z,-1.87
2023-02-06T23:55:50.911Z,-1.99
2023-02-06T23:58:17.676Z,-1.96
